Dallas, Texas
Traffic Map
Current Weather Conditions
Dallas, Texas
Few Clouds
Few Clouds
55°
Feels Like: 55°
Wind Chill: 55° Ceiling: Unl
Heat Index: 55° Visibility: 10mi
Dew Point: 44° Wind: 7mph
Humidity: 67% Direction: 130° (SE)
Pressure: 30in Gusts: 0mph
Raw Report DataKDAL 210753Z 13006KT 10SM FEW060 FEW300 13/07 A3000 RMK AO2 SLP156 T01280067
Traffic Incident Summary
Active as of:
Severity:
Category:
InformationThere was an issue retrieving the traffic information for this location. Please try a different location or try again shortly.
Advertisements
Track Severe Weather on mobile